Time;durP1;ratioP1;P1;durP2;ratioP2;P2;SDS_P1;SDS_P2;PMS_P1;PMS_P2;Temp;Humidity;BMP_temperature;BMP_pressure;BME280_temperature;BME280_humidity;BME280_pressure;Samples;Min_cycle;Max_cycle;Signal;HPM_P1;HPM_P2
2022/07/05 00:02:12;;;;;;;11.35;2.63;;;16.80;99.90;;;;;;5048099;28;20104;-45
2022/07/05 00:04:37;;;;;;;8.32;2.75;;;16.80;99.90;;;;;;5045961;28;20379;-45
2022/07/05 00:07:18;;;;;;;8.20;2.20;;;16.70;99.90;;;;;;5047739;28;20091;-45
2022/07/05 00:09:45;;;;;;;5.20;2.28;;;16.70;99.90;;;;;;5047763;28;20037;-45
2022/07/05 00:12:13;;;;;;;7.85;2.95;;;16.70;99.90;;;;;;5047714;28;20040;-47
2022/07/05 00:14:39;;;;;;;6.63;3.30;;;16.60;99.90;;;;;;5046996;28;20074;-47
2022/07/05 00:17:05;;;;;;;4.75;2.38;;;16.60;99.90;;;;;;5050166;28;20466;-45
2022/07/05 00:19:31;;;;;;;7.57;2.63;;;16.60;99.90;;;;;;5051622;28;20044;-45
2022/07/05 00:21:57;;;;;;;14.13;2.75;;;16.50;99.90;;;;;;5049824;28;20025;-46
2022/07/05 00:24:23;;;;;;;4.55;2.55;;;16.50;99.90;;;;;;5045182;28;20017;-44
2022/07/05 00:26:49;;;;;;;5.00;2.38;;;16.50;99.90;;;;;;5041559;28;20182;-44
2022/07/05 00:29:14;;;;;;;4.93;2.50;;;16.40;99.90;;;;;;5050985;28;20116;-45
2022/07/05 00:31:40;;;;;;;5.15;2.67;;;16.40;99.90;;;;;;5051007;28;20037;-48
2022/07/05 00:34:05;;;;;;;8.20;3.00;;;16.40;99.90;;;;;;5050457;28;20053;-46
2022/07/05 00:36:31;;;;;;;6.60;2.80;;;16.30;99.90;;;;;;5050948;28;20036;-46
2022/07/05 00:38:56;;;;;;;7.40;3.13;;;16.30;99.90;;;;;;5049978;28;20028;-45
2022/07/05 00:41:22;;;;;;;5.50;2.85;;;16.30;99.90;;;;;;5051237;28;20029;-45
2022/07/05 00:43:58;;;;;;;8.02;3.17;;;16.30;99.90;;;;;;5050436;28;20025;-45
2022/07/05 00:46:25;;;;;;;6.82;3.17;;;16.20;99.90;;;;;;5049036;28;20036;-45
2022/07/05 00:48:51;;;;;;;4.90;3.25;;;16.20;99.90;;;;;;5050595;28;20035;-45
2022/07/05 00:51:17;;;;;;;6.72;3.85;;;16.20;99.90;;;;;;5050530;28;20021;-45
2022/07/05 00:53:43;;;;;;;4.97;3.25;;;16.20;99.90;;;;;;5044252;28;20021;-47
2022/07/05 00:56:09;;;;;;;4.43;2.97;;;16.20;99.90;;;;;;5041565;28;20674;-46
2022/07/05 00:58:35;;;;;;;6.40;3.33;;;16.20;99.90;;;;;;5050536;28;20086;-45
2022/07/05 01:01:03;;;;;;;5.57;3.15;;;16.20;99.90;;;;;;5050006;28;20025;-47
2022/07/05 01:03:29;;;;;;;8.18;3.45;;;16.20;99.90;;;;;;5050442;28;20037;-46
2022/07/05 01:05:55;;;;;;;7.78;4.07;;;16.20;99.90;;;;;;5049562;28;20037;-49
2022/07/05 01:08:23;;;;;;;8.18;3.40;;;16.10;99.90;;;;;;5050482;28;20232;-47
2022/07/05 01:10:49;;;;;;;6.13;2.97;;;16.10;99.90;;;;;;5050338;28;20087;-46
2022/07/05 01:13:15;;;;;;;4.75;3.15;;;16.00;99.90;;;;;;5050484;28;20045;-46
2022/07/05 01:15:41;;;;;;;5.18;3.05;;;16.10;99.90;;;;;;5049560;28;20060;-47
2022/07/05 01:18:07;;;;;;;4.50;2.45;;;16.00;99.90;;;;;;5049173;28;20021;-45
2022/07/05 01:20:35;;;;;;;6.18;2.65;;;16.00;99.90;;;;;;5050395;28;20047;-45
2022/07/05 01:23:02;;;;;;;3.78;2.55;;;15.90;99.90;;;;;;5048438;28;20658;-45
2022/07/05 01:25:29;;;;;;;7.18;2.80;;;15.90;99.90;;;;;;5037509;28;20287;-47
2022/07/05 01:27:56;;;;;;;3.67;2.47;;;15.90;99.90;;;;;;5048593;28;20279;-47
2022/07/05 01:30:22;;;;;;;6.10;2.60;;;15.90;99.90;;;;;;5050224;28;20067;-45
2022/07/05 01:32:48;;;;;;;5.10;2.20;;;15.80;99.90;;;;;;5049775;28;20061;-45
2022/07/05 01:35:20;;;;;;;5.70;2.50;;;15.80;99.90;;;;;;5049181;28;20025;-45
2022/07/05 01:37:47;;;;;;;5.97;3.05;;;15.80;99.90;;;;;;5049793;28;20033;-45
2022/07/05 01:40:13;;;;;;;4.97;2.78;;;15.80;99.90;;;;;;5049556;28;20029;-48
2022/07/05 01:42:39;;;;;;;5.60;2.60;;;15.80;99.90;;;;;;5049579;28;20501;-45
2022/07/05 01:45:06;;;;;;;4.05;2.58;;;15.80;99.90;;;;;;5048945;28;20025;-46
2022/07/05 01:47:36;;;;;;;5.90;3.28;;;15.80;99.90;;;;;;5049410;28;20636;-48
2022/07/05 01:50:04;;;;;;;8.15;3.70;;;15.80;99.90;;;;;;5049382;28;20028;-45
2022/07/05 01:52:31;;;;;;;6.13;3.20;;;15.80;99.90;;;;;;5049595;28;20591;-46
2022/07/05 01:54:58;;;;;;;5.22;2.83;;;15.80;99.90;;;;;;5038850;28;20033;-44
2022/07/05 01:57:24;;;;;;;4.82;2.70;;;15.80;99.90;;;;;;5045559;28;20548;-45
2022/07/05 01:59:50;;;;;;;8.85;3.20;;;15.70;99.90;;;;;;5049239;28;20057;-45
2022/07/05 02:02:15;;;;;;;5.32;2.90;;;15.60;99.90;;;;;;5049345;28;20108;-47
2022/07/05 02:04:41;;;;;;;9.55;2.50;;;15.50;99.90;;;;;;5048643;28;20021;-46
2022/07/05 02:07:08;;;;;;;5.93;3.10;;;15.40;99.90;;;;;;5049298;28;20275;-45
2022/07/05 02:09:34;;;;;;;5.90;2.67;;;15.40;99.90;;;;;;5047637;28;20021;-46
2022/07/05 02:11:59;;;;;;;4.88;3.08;;;15.40;99.90;;;;;;5049117;28;20052;-45
2022/07/05 02:14:25;;;;;;;4.75;3.33;;;15.20;99.90;;;;;;5048461;28;20071;-45
2022/07/05 02:16:51;;;;;;;4.68;2.80;;;15.20;99.90;;;;;;5049423;28;20427;-45
2022/07/05 02:19:16;;;;;;;6.18;2.72;;;15.10;99.90;;;;;;5049228;28;20031;-44
2022/07/05 02:21:42;;;;;;;3.65;2.88;;;15.00;99.90;;;;;;5049010;28;20025;-45
2022/07/05 02:24:08;;;;;;;9.93;3.08;;;15.00;99.90;;;;;;5041886;28;20429;-46
2022/07/05 02:26:34;;;;;;;5.30;3.05;;;15.00;99.90;;;;;;5040630;28;20053;-45
2022/07/05 02:29:01;;;;;;;6.30;3.33;;;14.90;99.90;;;;;;5048801;28;20438;-45
2022/07/05 02:31:26;;;;;;;6.07;3.55;;;14.90;99.90;;;;;;5049244;28;20111;-45
2022/07/05 02:33:52;;;;;;;7.70;3.50;;;14.90;99.90;;;;;;5048794;28;20108;-45
2022/07/05 02:36:18;;;;;;;9.15;3.80;;;15.00;99.90;;;;;;5048487;28;20028;-45
2022/07/05 02:38:44;;;;;;;6.35;2.67;;;15.00;99.90;;;;;;5048348;28;20052;-44
2022/07/05 02:41:11;;;;;;;9.40;3.60;;;15.00;99.90;;;;;;5048718;28;20394;-45
2022/07/05 02:43:37;;;;;;;4.68;3.00;;;14.90;99.90;;;;;;5047285;28;20021;-45
2022/07/05 02:46:04;;;;;;;6.30;2.92;;;14.90;99.90;;;;;;5046508;28;20052;-45
2022/07/05 02:48:30;;;;;;;5.50;2.72;;;14.90;99.90;;;;;;5048536;28;20051;-45
2022/07/05 02:50:56;;;;;;;6.47;2.92;;;14.80;99.90;;;;;;5048680;28;20032;-45
2022/07/05 02:53:21;;;;;;;9.25;3.88;;;14.80;99.90;;;;;;5045150;28;20036;-44
2022/07/05 02:55:47;;;;;;;4.97;2.80;;;14.70;99.90;;;;;;5039059;28;20100;-45
2022/07/05 02:58:12;;;;;;;4.93;2.72;;;14.60;99.90;;;;;;5048762;28;20040;-45
2022/07/05 03:00:39;;;;;;;5.20;3.05;;;14.50;99.90;;;;;;5048960;28;20096;-45
2022/07/05 03:03:04;;;;;;;4.05;2.70;;;14.50;99.90;;;;;;5048623;28;20237;-52
2022/07/05 03:05:30;;;;;;;6.55;3.67;;;14.40;99.90;;;;;;5048243;28;20021;-45
2022/07/05 03:07:55;;;;;;;4.38;3.25;;;14.40;99.90;;;;;;5047548;28;20033;-44
2022/07/05 03:10:21;;;;;;;3.60;2.70;;;14.30;99.90;;;;;;5048894;28;20036;-44
2022/07/05 03:12:46;;;;;;;5.60;2.75;;;14.40;99.90;;;;;;5048509;28;20036;-45
2022/07/05 03:15:12;;;;;;;4.10;2.70;;;14.40;99.90;;;;;;5046653;28;20108;-44
2022/07/05 03:17:37;;;;;;;4.38;3.10;;;14.30;99.90;;;;;;5047024;28;20029;-45
2022/07/05 03:20:03;;;;;;;9.13;4.15;;;14.30;99.90;;;;;;5048456;28;20035;-45
2022/07/05 03:22:29;;;;;;;5.40;2.95;;;14.30;99.90;;;;;;5048494;28;20029;-45
2022/07/05 03:24:54;;;;;;;4.13;2.60;;;14.30;99.90;;;;;;5039100;28;20227;-45
2022/07/05 03:27:20;;;;;;;5.18;3.10;;;14.40;99.90;;;;;;5044033;28;20091;-45
2022/07/05 03:29:45;;;;;;;4.53;3.03;;;14.30;99.90;;;;;;5048249;28;20071;-44
2022/07/05 03:32:11;;;;;;;5.65;3.30;;;14.30;99.90;;;;;;5048182;28;20068;-45
2022/07/05 03:34:38;;;;;;;6.57;3.70;;;14.30;99.90;;;;;;5047662;28;20052;-45
2022/07/05 03:37:03;;;;;;;6.38;3.05;;;14.40;99.90;;;;;;5047898;28;20053;-45
2022/07/05 03:39:29;;;;;;;4.07;2.95;;;14.40;99.90;;;;;;5048395;28;20472;-44
2022/07/05 03:41:54;;;;;;;4.82;3.05;;;14.40;99.90;;;;;;5048403;28;20475;-44
2022/07/05 03:44:20;;;;;;;9.60;3.55;;;14.40;99.90;;;;;;5047564;28;20028;-46
2022/07/05 03:46:45;;;;;;;9.75;4.15;;;14.40;99.90;;;;;;5048170;28;20100;-44
2022/07/05 03:49:11;;;;;;;9.68;4.50;;;14.50;99.90;;;;;;5048167;28;20028;-43
2022/07/05 03:51:36;;;;;;;7.63;3.50;;;14.60;99.90;;;;;;5050035;28;20430;-43
2022/07/05 03:54:03;;;;;;;5.10;3.40;;;14.70;99.90;;;;;;5046428;28;20021;-43
2022/07/05 03:56:29;;;;;;;11.40;3.03;;;14.70;99.90;;;;;;5043367;28;20033;-44
2022/07/05 03:58:54;;;;;;;5.05;3.45;;;14.80;99.90;;;;;;5051806;28;20060;-44
2022/07/05 04:01:20;;;;;;;4.97;3.15;;;14.80;99.90;;;;;;5051947;28;20094;-45
2022/07/05 04:03:45;;;;;;;4.63;3.05;;;14.80;99.90;;;;;;5051663;28;20517;-44
2022/07/05 04:06:12;;;;;;;6.18;3.05;;;14.90;99.90;;;;;;5051525;28;20035;-44
2022/07/05 04:08:37;;;;;;;3.83;2.72;;;14.90;99.90;;;;;;5051676;28;20025;-43
2022/07/05 04:11:03;;;;;;;4.57;3.05;;;14.90;99.90;;;;;;5051677;28;20244;-43
2022/07/05 04:13:29;;;;;;;4.97;3.50;;;14.90;99.90;;;;;;5051366;28;20037;-45
2022/07/05 04:15:55;;;;;;;6.38;3.40;;;14.90;99.90;;;;;;5050966;28;20028;-44
2022/07/05 04:18:21;;;;;;;4.68;3.53;;;14.90;99.90;;;;;;5051396;28;20021;-44
2022/07/05 04:20:47;;;;;;;8.35;3.67;;;14.90;99.90;;;;;;5051624;28;20075;-45
2022/07/05 04:23:14;;;;;;;7.47;4.13;;;15.00;99.90;;;;;;5048536;28;20051;-44
2022/07/05 04:25:40;;;;;;;6.25;3.50;;;15.00;99.90;;;;;;5040254;28;20025;-44
2022/07/05 04:28:05;;;;;;;8.18;3.30;;;15.10;99.90;;;;;;5051249;28;20029;-44
2022/07/05 04:30:31;;;;;;;4.97;3.90;;;15.10;99.90;;;;;;5051059;28;20530;-44
2022/07/05 04:32:57;;;;;;;7.97;3.47;;;15.20;99.90;;;;;;5050975;28;20017;-44
2022/07/05 04:35:23;;;;;;;6.38;3.88;;;15.30;99.90;;;;;;5050419;28;20028;-44
2022/07/05 04:37:48;;;;;;;7.97;4.20;;;15.30;99.90;;;;;;5050825;28;20098;-44
2022/07/05 04:40:14;;;;;;;8.93;3.92;;;15.40;99.90;;;;;;5049322;28;20029;-44
2022/07/05 04:42:40;;;;;;;7.78;3.90;;;15.50;99.90;;;;;;5050755;28;20060;-44
2022/07/05 04:45:06;;;;;;;8.07;3.58;;;15.50;99.90;;;;;;5050293;28;20025;-45
2022/07/05 04:47:33;;;;;;;9.15;3.35;;;15.60;99.90;;;;;;5050661;28;20127;-44
2022/07/05 04:50:00;;;;;;;10.70;4.50;;;15.60;99.90;;;;;;5050646;28;20063;-44
2022/07/05 04:52:26;;;;;;;8.00;3.88;;;15.80;99.90;;;;;;5050666;28;20032;-46
2022/07/05 04:54:51;;;;;;;9.63;4.22;;;15.90;99.90;;;;;;5041672;28;20048;-44
2022/07/05 04:57:17;;;;;;;4.68;3.35;;;16.00;99.90;;;;;;5045468;28;20025;-45
2022/07/05 04:59:43;;;;;;;6.38;3.75;;;16.00;99.90;;;;;;5050734;28;20029;-45
2022/07/05 05:02:08;;;;;;;6.03;3.63;;;16.00;99.90;;;;;;5050429;28;20391;-44
2022/07/05 05:04:34;;;;;;;7.25;3.33;;;16.10;99.90;;;;;;5049954;28;20032;-44
2022/07/05 05:06:59;;;;;;;8.55;3.75;;;16.20;99.90;;;;;;5050910;28;20032;-44
2022/07/05 05:09:25;;;;;;;5.82;3.95;;;16.30;99.90;;;;;;5032219;28;20065;-44
2022/07/05 05:11:51;;;;;;;8.68;3.47;;;16.30;99.90;;;;;;5050554;28;20324;-50
2022/07/05 05:14:16;;;;;;;7.32;3.30;;;16.40;99.90;;;;;;5049545;28;20040;-43
2022/07/05 05:16:42;;;;;;;5.85;3.53;;;16.50;99.90;;;;;;5050299;28;20033;-44
2022/07/05 05:19:07;;;;;;;11.95;3.90;;;16.60;99.90;;;;;;5050277;28;20040;-46
2022/07/05 05:21:33;;;;;;;4.35;2.80;;;16.60;99.90;;;;;;5050269;28;20644;-44
2022/07/05 05:23:59;;;;;;;7.13;3.55;;;16.50;99.90;;;;;;5044669;28;20049;-44
2022/07/05 05:26:24;;;;;;;4.68;3.13;;;16.60;99.90;;;;;;5041140;28;20090;-44
2022/07/05 05:28:50;;;;;;;11.55;3.03;;;16.70;99.90;;;;;;5049905;28;20033;-44
2022/07/05 05:31:16;;;;;;;7.55;3.00;;;16.70;99.90;;;;;;5048652;28;20040;-43
2022/07/05 05:33:41;;;;;;;5.80;3.05;;;16.80;99.90;;;;;;5049898;28;20017;-44
2022/07/05 05:36:07;;;;;;;7.95;3.42;;;16.80;99.90;;;;;;5049193;28;20645;-45
2022/07/05 05:38:33;;;;;;;9.68;3.55;;;16.80;99.90;;;;;;5049634;28;20037;-45
2022/07/05 05:40:58;;;;;;;5.07;2.75;;;16.90;99.90;;;;;;5050018;28;20052;-45
2022/07/05 05:43:24;;;;;;;7.63;3.47;;;17.00;99.90;;;;;;5050134;28;20024;-45
2022/07/05 05:45:49;;;;;;;5.93;3.00;;;17.20;99.90;;;;;;5049396;28;20020;-44
2022/07/05 05:48:15;;;;;;;5.43;2.75;;;17.30;99.90;;;;;;5048488;28;20053;-45
2022/07/05 05:50:40;;;;;;;7.70;2.80;;;17.30;99.90;;;;;;5049843;28;20056;-46
2022/07/05 05:53:07;;;;;;;6.93;3.20;;;17.30;99.90;;;;;;5047975;28;20025;-45
2022/07/05 05:55:32;;;;;;;5.80;2.58;;;17.40;99.90;;;;;;5037308;28;20449;-44
2022/07/05 05:58:15;;;;;;;6.93;3.20;;;17.50;99.90;;;;;;5049621;28;20164;-45
2022/07/05 06:00:42;;;;;;;7.68;2.83;;;17.50;99.90;;;;;;5049535;28;20021;-45
2022/07/05 06:03:07;;;;;;;5.07;2.53;;;17.50;99.90;;;;;;5049407;28;20017;-46
2022/07/05 06:05:33;;;;;;;8.15;3.17;;;17.50;99.90;;;;;;5048769;28;20043;-45
2022/07/05 06:07:59;;;;;;;3.67;2.45;;;17.50;99.90;;;;;;5049365;28;20029;-45
2022/07/05 06:10:28;;;;;;;6.07;2.25;;;17.50;99.90;;;;;;5049040;28;20164;-44
2022/07/05 06:12:56;;;;;;;4.90;2.00;;;17.60;99.90;;;;;;5049013;28;20029;-47
2022/07/05 06:15:22;;;;;;;7.25;2.67;;;17.70;99.90;;;;;;5046824;28;20110;-45
2022/07/05 06:17:48;;;;;;;5.03;2.00;;;17.70;99.90;;;;;;5049139;28;20341;-45
2022/07/05 06:20:22;;;;;;;5.63;2.65;;;17.80;99.90;;;;;;5049175;28;20024;-45
2022/07/05 06:22:48;;;;;;;5.47;2.15;;;17.80;99.90;;;;;;5049572;28;20017;-47
2022/07/05 06:25:14;;;;;;;8.70;2.10;;;17.90;99.90;;;;;;5037169;28;20028;-47
2022/07/05 06:27:47;;;;;;;8.90;2.45;;;18.10;99.90;;;;;;5047538;28;20028;-45
2022/07/05 06:30:16;;;;;;;4.75;2.40;;;18.20;99.90;;;;;;5049168;28;20423;-47
2022/07/05 06:32:43;;;;;;;4.97;2.05;;;18.20;99.90;;;;;;5049074;28;20052;-46
2022/07/05 06:35:09;;;;;;;6.35;2.20;;;18.20;99.90;;;;;;5048403;28;20037;-45
2022/07/05 06:37:44;;;;;;;6.47;1.83;;;18.20;99.90;;;;;;5049025;28;20064;-47
2022/07/05 06:40:10;;;;;;;6.07;2.03;;;18.20;99.90;;;;;;5048673;28;20068;-45
2022/07/05 06:42:36;;;;;;;5.10;2.30;;;18.30;99.90;;;;;;5049081;28;20029;-47
2022/07/05 06:45:02;;;;;;;6.18;2.20;;;18.30;99.90;;;;;;5048292;28;20029;-46
2022/07/05 06:47:27;;;;;;;11.52;2.20;;;18.50;99.90;;;;;;5048606;28;20048;-46
2022/07/05 06:49:53;;;;;;;3.30;2.15;;;18.60;99.90;;;;;;5048742;28;20475;-45
2022/07/05 06:52:18;;;;;;;6.60;2.00;;;18.60;99.90;;;;;;5048548;28;20029;-45
2022/07/05 06:54:43;;;;;;;5.65;2.53;;;18.60;99.90;;;;;;5040874;28;20043;-46
2022/07/05 06:57:09;;;;;;;8.18;3.05;;;18.60;99.90;;;;;;5042476;28;20048;-46
2022/07/05 06:59:36;;;;;;;7.15;2.20;;;18.70;99.90;;;;;;5048646;28;20021;-44
2022/07/05 07:02:02;;;;;;;8.68;2.33;;;18.80;99.90;;;;;;5048578;28;20048;-46
2022/07/05 07:04:27;;;;;;;6.65;2.17;;;18.90;99.90;;;;;;5048260;28;20482;-46
2022/07/05 07:06:53;;;;;;;5.88;1.70;;;19.00;99.90;;;;;;5048758;28;20271;-44
2022/07/05 07:09:18;;;;;;;15.32;2.53;;;19.20;99.90;;;;;;5048698;28;20493;-45
2022/07/05 07:11:45;;;;;;;9.13;2.13;;;19.20;99.90;;;;;;5048530;28;20336;-45
2022/07/05 07:14:10;;;;;;;4.85;2.08;;;19.30;99.90;;;;;;5047796;28;20057;-48
2022/07/05 07:16:36;;;;;;;4.90;3.08;;;19.40;99.90;;;;;;5047075;28;20448;-46
2022/07/05 07:19:01;;;;;;;4.03;1.80;;;19.60;99.90;;;;;;5048473;28;20021;-47
2022/07/05 07:21:27;;;;;;;7.22;2.22;;;19.60;99.90;;;;;;5048457;28;20025;-46
2022/07/05 07:23:52;;;;;;;4.75;2.20;;;19.70;99.90;;;;;;5043542;28;20021;-46
2022/07/05 07:26:18;;;;;;;8.00;2.70;;;19.90;99.90;;;;;;5042631;28;20198;-45
2022/07/05 07:28:43;;;;;;;5.45;2.10;;;20.10;99.60;;;;;;5052486;28;20407;-45
2022/07/05 07:31:09;;;;;;;6.25;2.28;;;20.10;99.90;;;;;;5052745;28;20371;-46
2022/07/05 07:33:35;;;;;;;7.18;2.40;;;20.20;99.90;;;;;;5052466;28;20055;-45
2022/07/05 07:36:00;;;;;;;5.38;2.22;;;20.30;99.30;;;;;;5051781;28;20551;-45
2022/07/05 07:38:26;;;;;;;10.30;2.92;;;20.30;99.10;;;;;;5052472;28;20064;-45
2022/07/05 07:40:52;;;;;;;4.65;2.70;;;20.50;98.50;;;;;;5052271;28;20017;-45
2022/07/05 07:43:18;;;;;;;6.47;2.45;;;20.50;98.80;;;;;;5052095;28;20024;-45
2022/07/05 07:45:43;;;;;;;6.15;2.15;;;20.70;98.60;;;;;;5051194;28;20062;-46
2022/07/05 07:48:09;;;;;;;7.88;3.10;;;20.90;98.20;;;;;;5051960;28;20041;-46
2022/07/05 07:50:35;;;;;;;5.90;2.10;;;20.90;97.50;;;;;;5052238;28;20148;-45
2022/07/05 07:53:00;;;;;;;7.32;2.38;;;21.20;96.40;;;;;;5049531;28;20179;-46
2022/07/05 07:55:26;;;;;;;6.95;1.95;;;20.90;96.80;;;;;;5038935;28;20021;-45
2022/07/05 07:57:52;;;;;;;4.25;2.10;;;21.00;96.60;;;;;;5051320;28;20475;-48
2022/07/05 08:00:18;;;;;;;2.90;1.58;;;21.10;95.50;;;;;;5051484;28;20482;-46
2022/07/05 08:02:43;;;;;;;5.88;1.95;;;21.00;94.90;;;;;;5050236;28;20040;-47
2022/07/05 08:05:09;;;;;;;8.80;2.35;;;21.10;94.90;;;;;;5051000;28;20039;-45
2022/07/05 08:07:35;;;;;;;6.50;2.40;;;21.30;93.60;;;;;;5051528;28;20039;-46
2022/07/05 08:10:01;;;;;;;7.50;2.70;;;21.20;93.40;;;;;;5051424;28;20028;-46
2022/07/05 08:12:27;;;;;;;5.40;2.03;;;21.00;94.20;;;;;;5051803;28;20036;-46
2022/07/05 08:14:52;;;;;;;4.65;1.63;;;21.00;94.20;;;;;;5051248;28;20025;-45
2022/07/05 08:17:20;;;;;;;8.18;2.15;;;20.90;94.40;;;;;;5051515;28;20437;-46
2022/07/05 08:22:31;;;;;;;5.10;2.28;;;21.20;92.70;;;;;;5051734;28;20031;-45
2022/07/05 08:24:57;;;;;;;6.20;1.80;;;21.30;93.20;;;;;;5041749;28;20021;-47
2022/07/05 08:27:23;;;;;;;6.85;2.20;;;21.40;92.90;;;;;;5047240;28;20032;-47
2022/07/05 08:29:49;;;;;;;8.18;2.58;;;21.10;92.70;;;;;;5051611;28;20033;-45
2022/07/05 08:32:15;;;;;;;7.28;1.95;;;21.10;93.50;;;;;;5051475;28;20083;-47
2022/07/05 08:34:41;;;;;;;3.33;1.83;;;22.10;93.30;;;;;;5050629;28;20033;-48
2022/07/05 08:37:07;;;;;;;4.38;1.90;;;23.30;91.70;;;;;;5050295;28;20033;-46
2022/07/05 08:39:33;;;;;;;3.22;1.55;;;24.20;87.80;;;;;;5050994;28;20040;-45
2022/07/05 08:41:59;;;;;;;5.70;1.90;;;24.40;85.60;;;;;;5051048;28;20494;-45
2022/07/05 08:44:28;;;;;;;5.13;1.73;;;24.40;83.70;;;;;;5049360;28;20029;-45
2022/07/05 08:46:56;;;;;;;4.00;1.67;;;24.50;82.90;;;;;;5050810;28;20504;-46
2022/07/05 08:49:24;;;;;;;3.30;1.60;;;24.20;83.20;;;;;;5050875;28;20161;-47
2022/07/05 08:51:50;;;;;;;3.08;1.65;;;25.00;78.30;;;;;;5051091;28;20249;-45
2022/07/05 08:54:17;;;;;;;6.45;1.77;;;25.60;76.10;;;;;;5045474;28;20128;-45
2022/07/05 08:56:44;;;;;;;3.63;1.65;;;26.40;71.40;;;;;;5041999;28;20331;-47
2022/07/05 08:59:09;;;;;;;2.83;1.20;;;27.70;69.60;;;;;;5046296;28;20009;-48
2022/07/05 09:01:36;;;;;;;6.03;2.28;;;28.50;64.80;;;;;;5042214;28;20165;-45
2022/07/05 09:04:05;;;;;;;2.80;1.30;;;28.90;61.90;;;;;;5049949;28;20017;-46
2022/07/05 09:06:34;;;;;;;3.93;1.53;;;30.10;61.10;;;;;;5050576;28;20025;-47
2022/07/05 09:09:01;;;;;;;2.38;1.23;;;31.20;58.20;;;;;;5049120;28;20268;-46
2022/07/05 09:11:48;;;;;;;4.10;1.13;;;32.60;55.70;;;;;;5050425;28;20040;-49
2022/07/05 09:14:25;;;;;;;3.42;1.20;;;31.70;53.50;;;;;;5049535;28;20037;-46
2022/07/05 09:16:51;;;;;;;8.27;1.13;;;30.50;54.10;;;;;;5050419;28;20386;-44
2022/07/05 09:19:17;;;;;;;5.60;1.80;;;28.80;56.40;;;;;;5050663;28;20036;-45
2022/07/05 09:21:43;;;;;;;2.80;1.58;;;27.50;58.70;;;;;;5050140;28;20478;-45
2022/07/05 09:24:10;;;;;;;3.10;1.50;;;26.80;59.60;;;;;;5050021;28;20053;-44
2022/07/05 09:26:44;;;;;;;3.33;1.50;;;27.10;61.50;;;;;;5050261;28;20590;-47
2022/07/05 09:29:18;;;;;;;1.50;1.10;;;28.30;56.70;;;;;;5047059;28;20032;-45
2022/07/05 09:31:46;;;;;;;3.40;1.20;;;29.10;55.70;;;;;;5041843;28;20028;-45
2022/07/05 09:34:12;;;;;;;3.00;1.15;;;30.70;53.60;;;;;;5048104;28;20032;-45
2022/07/05 09:36:57;;;;;;;1.75;1.35;;;30.50;51.10;;;;;;5048624;28;20168;-46
2022/07/05 09:39:29;;;;;;;3.55;1.60;;;31.30;50.80;;;;;;5050292;28;20074;-46
2022/07/05 09:42:20;;;;;;;6.10;1.52;;;31.70;49.20;;;;;;5050005;28;20032;-46
2022/07/05 09:44:48;;;;;;;1.15;1.05;;;31.70;50.40;;;;;;5049053;28;20474;-45
2022/07/05 09:47:15;;;;;;;1.83;1.27;;;31.80;51.90;;;;;;5048591;28;20091;-46
2022/07/05 09:49:44;;;;;;;3.88;1.60;;;32.20;51.00;;;;;;5048795;28;20025;-48
2022/07/05 09:52:10;;;;;;;4.70;1.23;;;32.70;48.10;;;;;;5049717;28;20100;-47
2022/07/05 09:54:35;;;;;;;3.13;1.38;;;33.40;48.10;;;;;;5047726;28;20029;-48
2022/07/05 09:57:03;;;;;;;3.15;1.17;;;33.20;45.30;;;;;;5049674;28;20386;-46
2022/07/05 09:59:28;;;;;;;2.03;1.15;;;33.40;46.40;;;;;;5045868;28;20478;-47
2022/07/05 10:01:54;;;;;;;3.13;1.80;;;33.40;44.80;;;;;;5041512;28;20029;-45
2022/07/05 10:04:20;;;;;;;1.33;1.00;;;32.40;43.60;;;;;;5049008;28;20037;-46
2022/07/05 10:06:46;;;;;;;1.77;1.00;;;31.80;44.70;;;;;;5048237;28;20048;-46
2022/07/05 10:09:11;;;;;;;2.10;1.00;;;32.20;45.80;;;;;;5047954;28;20363;-44
2022/07/05 10:11:40;;;;;;;4.82;1.13;;;32.30;45.10;;;;;;5049202;28;20036;-48
2022/07/05 10:14:11;;;;;;;1.63;1.20;;;31.90;45.40;;;;;;5047191;28;20041;-46
2022/07/05 10:16:36;;;;;;;2.20;1.40;;;30.60;47.20;;;;;;5049265;28;20110;-45
2022/07/05 10:19:04;;;;;;;1.40;1.23;;;29.90;48.80;;;;;;5049375;28;20506;-48
2022/07/05 10:21:30;;;;;;;2.85;1.20;;;29.90;48.70;;;;;;5048007;28;20500;-45
2022/07/05 10:23:56;;;;;;;2.33;1.10;;;29.70;49.70;;;;;;5048912;28;20029;-47
2022/07/05 10:26:23;;;;;;;2.38;1.00;;;29.90;49.00;;;;;;5048713;28;20047;-47
2022/07/05 10:28:52;;;;;;;2.08;1.08;;;30.60;47.80;;;;;;5046169;28;20031;-46
2022/07/05 10:31:18;;;;;;;3.83;1.33;;;31.00;47.60;;;;;;5040732;28;20036;-46
2022/07/05 10:33:44;;;;;;;2.67;1.48;;;31.80;47.30;;;;;;5048921;28;20103;-46
2022/07/05 10:36:11;;;;;;;4.05;1.40;;;32.60;44.30;;;;;;5048282;28;20053;-46
2022/07/05 10:38:43;;;;;;;1.95;1.40;;;33.00;43.10;;;;;;5049425;28;20028;-44
2022/07/05 10:41:12;;;;;;;4.22;1.13;;;33.40;43.10;;;;;;5049072;28;20486;-45
2022/07/05 10:43:37;;;;;;;5.25;1.10;;;33.60;42.60;;;;;;5048819;28;20029;-44
2022/07/05 10:46:07;;;;;;;3.47;1.00;;;33.20;43.00;;;;;;5048461;28;20096;-47
2022/07/05 10:48:32;;;;;;;1.77;1.25;;;33.10;42.40;;;;;;5049308;28;20525;-45
2022/07/05 10:51:13;;;;;;;3.72;1.00;;;31.80;43.60;;;;;;5048904;28;20031;-46
2022/07/05 10:53:39;;;;;;;1.90;1.10;;;30.80;44.90;;;;;;5048869;28;20028;-45
2022/07/05 10:56:04;;;;;;;3.08;1.33;;;30.00;46.20;;;;;;5048348;28;20025;-48
2022/07/05 10:58:45;;;;;;;3.72;1.20;;;28.90;47.50;;;;;;5045701;28;20033;-45
2022/07/05 11:01:20;;;;;;;3.58;1.17;;;28.90;48.00;;;;;;5040239;28;20463;-46
2022/07/05 11:04:19;;;;;;;3.88;1.60;;;29.80;48.10;;;;;;5047224;28;20478;-46
2022/07/05 11:06:49;;;;;;;3.10;1.20;;;30.20;47.60;;;;;;5048969;28;20108;-45
2022/07/05 11:09:16;;;;;;;5.20;1.20;;;31.00;45.20;;;;;;5048941;28;20536;-46
2022/07/05 11:12:04;;;;;;;3.85;1.20;;;30.20;45.00;;;;;;5031090;28;20502;-44
2022/07/05 11:14:34;;;;;;;2.92;1.23;;;30.40;45.50;;;;;;5047630;28;20063;-47
2022/07/05 11:17:11;;;;;;;3.38;1.30;;;30.60;45.70;;;;;;5048369;28;20505;-46
2022/07/05 11:20:03;;;;;;;3.63;1.40;;;30.40;45.30;;;;;;5048532;28;20029;-45
2022/07/05 11:22:29;;;;;;;7.05;1.45;;;30.10;45.10;;;;;;5048342;28;20025;-45
2022/07/05 11:24:56;;;;;;;2.63;1.20;;;29.10;46.20;;;;;;5047784;28;20021;-47
2022/07/05 11:27:22;;;;;;;3.33;1.30;;;29.10;47.40;;;;;;5048418;28;20029;-44
2022/07/05 11:29:49;;;;;;;3.30;1.33;;;28.50;47.20;;;;;;5043386;28;20386;-47
2022/07/05 11:32:16;;;;;;;3.22;1.58;;;28.60;48.10;;;;;;5043035;28;20060;-47
2022/07/05 11:34:44;;;;;;;1.55;1.30;;;29.20;46.60;;;;;;5046503;28;20033;-45
2022/07/05 11:37:24;;;;;;;1.33;1.02;;;29.10;46.70;;;;;;5047989;28;20047;-45
2022/07/05 11:40:04;;;;;;;;;;;30.10;46.50;;;;;;5048681;28;20524;-45
2022/07/05 11:42:30;;;;;;;4.35;1.20;;;30.70;46.70;;;;;;5048184;28;19912;-46
2022/07/05 11:44:56;;;;;;;3.03;0.98;;;29.80;45.30;;;;;;5047182;28;20029;-47
2022/07/05 11:47:23;;;;;;;1.88;1.15;;;29.60;47.10;;;;;;5048039;28;20033;-46
2022/07/05 11:49:58;;;;;;;3.85;1.23;;;30.00;45.00;;;;;;5048095;28;20066;-47
2022/07/05 11:52:28;;;;;;;1.70;1.00;;;31.00;43.60;;;;;;5048122;28;20112;-45
2022/07/05 11:54:53;;;;;;;;;;;31.50;43.20;;;;;;5047874;28;20509;-45
2022/07/05 11:57:20;;;;;;;2.45;1.00;;;31.70;42.70;;;;;;5047866;28;20236;-48
2022/07/05 11:59:46;;;;;;;3.60;1.40;;;32.00;41.80;;;;;;5042532;28;20025;-46
2022/07/05 12:02:11;;;;;;;4.43;1.05;;;32.10;42.60;;;;;;5042607;28;20087;-46
2022/07/05 12:04:37;;;;;;;1.42;1.00;;;30.90;43.10;;;;;;5046068;28;20483;-45
2022/07/05 12:07:03;;;;;;;3.65;1.30;;;29.70;44.40;;;;;;5047940;28;20033;-47
2022/07/05 12:12:43;;;;;;;1.70;1.00;;;29.00;46.50;;;;;;5049342;28;20090;-45
2022/07/05 12:15:09;;;;;;;2.35;1.10;;;28.80;44.80;;;;;;5050714;28;20033;-44
2022/07/05 12:17:36;;;;;;;3.53;1.33;;;28.50;46.00;;;;;;5050085;28;20573;-45
2022/07/05 12:20:02;;;;;;;4.18;1.38;;;29.00;45.80;;;;;;5051312;28;20027;-46
2022/07/05 12:22:32;;;;;;;1.88;1.23;;;29.00;45.50;;;;;;5051383;28;20021;-45
2022/07/05 12:25:00;;;;;;;4.43;1.13;;;28.10;45.60;;;;;;5050700;28;20302;-45
2022/07/05 12:27:27;;;;;;;1.60;1.30;;;28.50;46.90;;;;;;5049942;28;20038;-47
2022/07/05 12:29:53;;;;;;;8.57;1.70;;;28.80;45.50;;;;;;5045807;28;20429;-45
2022/07/05 12:32:18;;;;;;;1.45;0.90;;;28.90;45.70;;;;;;5046531;28;20025;-45
2022/07/05 12:34:44;;;;;;;5.47;1.20;;;28.80;45.20;;;;;;5050526;28;20048;-47
2022/07/05 12:37:09;;;;;;;3.85;0.90;;;28.90;44.70;;;;;;5051095;28;20036;-45
2022/07/05 12:39:35;;;;;;;1.73;1.20;;;28.90;45.50;;;;;;5051067;28;20052;-47
2022/07/05 12:42:00;;;;;;;3.28;1.25;;;29.00;45.90;;;;;;5051117;28;20108;-45
2022/07/05 12:44:26;;;;;;;2.25;1.00;;;28.90;46.30;;;;;;5050508;28;20028;-46
2022/07/05 12:46:52;;;;;;;3.70;1.15;;;29.10;45.00;;;;;;5050980;28;20056;-45
2022/07/05 12:49:18;;;;;;;2.60;0.95;;;28.80;44.10;;;;;;5051261;28;20055;-47
2022/07/05 12:51:45;;;;;;;1.88;1.08;;;28.90;44.40;;;;;;5050941;28;20610;-45
2022/07/05 13:00:06;;;;;;;0.90;0.70;;;27.80;45.90;;;;;;5046097;28;20033;-46